createdAt,value
2024-05-09T00:00:42.171Z,8.95
2024-05-09T00:03:10.874Z,8.94
2024-05-09T00:05:41.293Z,8.88
2024-05-09T00:08:10.057Z,8.83
2024-05-09T00:10:39.339Z,8.81
2024-05-09T00:13:07.790Z,8.83
2024-05-09T00:15:35.818Z,8.78
2024-05-09T00:18:04.563Z,8.72
2024-05-09T00:20:38.443Z,8.69
2024-05-09T00:23:12.821Z,8.61
2024-05-09T00:25:45.441Z,8.57
2024-05-09T00:28:13.249Z,8.54
2024-05-09T00:30:40.717Z,8.46
2024-05-09T00:33:09.797Z,8.43
2024-05-09T00:35:38.426Z,8.39
2024-05-09T00:38:05.940Z,8.33
2024-05-09T00:40:39.854Z,8.32
2024-05-09T00:43:10.238Z,8.31
2024-05-09T00:45:37.479Z,8.25
2024-05-09T00:48:07.971Z,8.17
2024-05-09T00:50:40.363Z,8.08
2024-05-09T00:53:10.435Z,8.05
2024-05-09T00:55:39.042Z,8.03
2024-05-09T00:58:09.193Z,8.01
2024-05-09T01:00:39.818Z,7.98
2024-05-09T01:03:13.368Z,7.96
2024-05-09T01:05:42.844Z,7.92
2024-05-09T01:08:11.031Z,7.88
2024-05-09T01:10:38.693Z,7.77
2024-05-09T01:13:07.178Z,7.72
2024-05-09T01:15:35.749Z,7.69
2024-05-09T01:18:09.851Z,7.63
2024-05-09T01:20:42.211Z,7.53
2024-05-09T01:23:12.678Z,7.48
2024-05-09T01:25:40.715Z,7.46
2024-05-09T01:28:07.828Z,7.43
2024-05-09T01:30:37.262Z,7.41
2024-05-09T01:33:08.053Z,7.32
2024-05-09T01:35:37.464Z,7.36
2024-05-09T01:38:05.344Z,7.34
2024-05-09T01:40:37.881Z,7.26
2024-05-09T01:43:11.232Z,7.24
2024-05-09T01:45:42.592Z,7.18
2024-05-09T01:48:10.994Z,7.17
2024-05-09T01:50:41.622Z,7.10
2024-05-09T01:53:11.932Z,7.03
2024-05-09T01:55:39.409Z,7.03
2024-05-09T01:58:07.673Z,7.01
2024-05-09T02:00:39.830Z,6.95
2024-05-09T02:03:16.022Z,6.88
2024-05-09T02:05:46.586Z,6.85
2024-05-09T02:08:16.008Z,6.84
2024-05-09T02:10:44.631Z,6.85
2024-05-09T02:13:12.508Z,6.83
2024-05-09T02:15:39.581Z,6.84
2024-05-09T02:18:08.176Z,6.79
2024-05-09T02:20:38.437Z,6.75
2024-05-09T02:23:06.784Z,6.71
2024-05-09T02:25:34.758Z,6.62
2024-05-09T02:28:02.074Z,6.59
2024-05-09T02:30:38.348Z,6.63
2024-05-09T02:33:10.384Z,6.62
2024-05-09T02:35:39.408Z,6.66
2024-05-09T02:38:06.629Z,6.63
2024-05-09T02:40:37.615Z,6.60
2024-05-09T02:43:07.976Z,6.60
2024-05-09T02:45:35.378Z,6.60
2024-05-09T02:48:02.918Z,6.53
2024-05-09T02:50:37.218Z,6.51
2024-05-09T02:53:07.655Z,6.47
2024-05-09T02:55:34.790Z,6.45
2024-05-09T02:58:01.884Z,6.41
2024-05-09T03:00:36.949Z,6.33
2024-05-09T03:03:09.023Z,6.32
2024-05-09T03:05:37.479Z,6.32
2024-05-09T03:08:05.075Z,6.37
2024-05-09T03:10:36.275Z,6.35
2024-05-09T03:13:14.566Z,6.29
2024-05-09T03:15:43.191Z,6.21
2024-05-09T03:18:11.372Z,6.11
2024-05-09T03:20:39.482Z,6.03
2024-05-09T03:23:08.479Z,5.94
2024-05-09T03:25:36.484Z,5.91
2024-05-09T03:28:03.801Z,5.86
2024-05-09T03:30:39.512Z,5.84
2024-05-09T03:33:20.153Z,5.89
2024-05-09T03:35:48.540Z,5.91
2024-05-09T03:38:16.318Z,5.90
2024-05-09T03:40:48.367Z,5.92
2024-05-09T03:43:16.101Z,5.93
2024-05-09T03:45:43.591Z,5.95
2024-05-09T03:48:11.042Z,5.96
2024-05-09T03:50:38.579Z,6.00
2024-05-09T03:53:06.541Z,6.03
2024-05-09T03:55:33.732Z,6.04
2024-05-09T03:58:00.852Z,6.04
2024-05-09T04:00:35.604Z,6.13
2024-05-09T04:03:08.580Z,6.28
2024-05-09T04:05:39.990Z,6.35
2024-05-09T04:08:07.959Z,6.43
2024-05-09T04:10:35.592Z,6.48
2024-05-09T04:13:04.070Z,6.52
2024-05-09T04:15:31.860Z,6.53
2024-05-09T04:17:59.619Z,6.57
2024-05-09T04:20:36.629Z,6.65
2024-05-09T04:23:08.611Z,6.70
2024-05-09T04:25:37.017Z,6.78
2024-05-09T04:28:04.373Z,6.85
2024-05-09T04:30:37.873Z,6.94
2024-05-09T04:33:10.454Z,7.02
2024-05-09T04:35:39.570Z,7.05
2024-05-09T04:38:06.965Z,7.02
2024-05-09T04:40:36.589Z,7.07
2024-05-09T04:43:15.174Z,7.17
2024-05-09T04:45:43.341Z,7.23
2024-05-09T04:48:10.450Z,7.28
2024-05-09T04:50:39.366Z,7.34
2024-05-09T04:53:15.036Z,7.48
2024-05-09T04:55:42.308Z,7.59
2024-05-09T04:58:09.707Z,7.62
2024-05-09T05:00:39.021Z,7.65
2024-05-09T05:03:14.029Z,7.70
2024-05-09T05:05:45.159Z,7.74
2024-05-09T05:08:14.572Z,7.75
2024-05-09T05:10:42.868Z,7.83
2024-05-09T05:13:18.496Z,7.94
2024-05-09T05:15:46.762Z,8.03
2024-05-09T05:18:15.316Z,8.10
2024-05-09T05:20:42.617Z,8.15
2024-05-09T05:23:14.377Z,8.22
2024-05-09T05:25:42.106Z,8.32
2024-05-09T05:28:09.264Z,8.38
2024-05-09T05:30:37.779Z,8.50
2024-05-09T05:33:06.520Z,8.59
2024-05-09T05:35:34.559Z,8.69
2024-05-09T05:38:02.401Z,8.79
2024-05-09T05:40:36.329Z,8.89
2024-05-09T05:43:06.346Z,8.95
2024-05-09T05:45:33.255Z,9.01
2024-05-09T05:48:03.004Z,9.11
2024-05-09T05:50:35.818Z,9.21
2024-05-09T05:53:06.455Z,9.25
2024-05-09T05:55:33.709Z,9.34
2024-05-09T05:58:01.922Z,9.45
2024-05-09T06:00:34.994Z,9.53
2024-05-09T06:03:05.968Z,9.60
2024-05-09T06:05:33.209Z,9.65
2024-05-09T06:08:00.524Z,9.72
2024-05-09T06:10:37.110Z,9.80
2024-05-09T06:13:06.841Z,9.91
2024-05-09T06:15:33.772Z,10.04
2024-05-09T06:18:00.899Z,10.17
2024-05-09T06:20:35.477Z,10.23
2024-05-09T06:23:05.894Z,10.34
2024-05-09T06:25:33.182Z,10.51
2024-05-09T06:28:01.055Z,10.74
2024-05-09T06:30:36.805Z,10.84
2024-05-09T06:33:09.166Z,10.86
2024-05-09T06:35:37.214Z,10.92
2024-05-09T06:38:04.934Z,11.12
2024-05-09T06:40:37.900Z,11.21
2024-05-09T06:43:18.144Z,11.48
2024-05-09T06:45:52.502Z,11.69
2024-05-09T06:48:20.472Z,11.85
2024-05-09T06:50:48.066Z,12.00
2024-05-09T06:53:16.924Z,12.16
2024-05-09T06:55:43.880Z,12.38
2024-05-09T06:58:10.746Z,12.57
2024-05-09T07:00:40.511Z,12.73
2024-05-09T07:03:10.332Z,12.96
2024-05-09T07:05:37.900Z,13.19
2024-05-09T07:08:06.088Z,13.24
2024-05-09T07:10:35.526Z,13.13
2024-05-09T07:13:03.754Z,13.16
2024-05-09T07:15:30.975Z,13.18
2024-05-09T07:17:57.939Z,13.08
2024-05-09T07:20:32.488Z,13.07
2024-05-09T07:23:03.023Z,13.08
2024-05-09T07:25:30.277Z,13.16
2024-05-09T07:27:57.349Z,13.25
2024-05-09T07:30:32.593Z,13.31
2024-05-09T07:33:02.274Z,13.38
2024-05-09T07:35:30.046Z,13.43
2024-05-09T07:37:57.280Z,13.51
2024-05-09T07:40:32.789Z,13.54
2024-05-09T07:43:11.778Z,13.60
2024-05-09T07:45:48.653Z,13.63
2024-05-09T07:53:39.309Z,13.77
2024-05-09T07:56:10.248Z,13.94
2024-05-09T07:58:38.865Z,14.10
2024-05-09T08:01:06.142Z,14.24
2024-05-09T08:03:34.231Z,14.28
2024-05-09T08:06:01.440Z,14.36
2024-05-09T08:08:28.279Z,14.44
2024-05-09T08:10:55.197Z,14.60
2024-05-09T08:13:22.185Z,14.58
2024-05-09T08:15:49.290Z,14.62
2024-05-09T08:18:17.840Z,14.64
2024-05-09T08:20:48.410Z,14.75
2024-05-09T08:23:15.313Z,14.76
2024-05-09T08:25:42.138Z,14.82
2024-05-09T08:28:09.593Z,15.03
2024-05-09T08:30:38.111Z,15.13
2024-05-09T08:33:07.179Z,15.28
2024-05-09T08:35:35.291Z,15.51
2024-05-09T08:38:06.958Z,15.68
2024-05-09T08:40:36.760Z,15.83
2024-05-09T08:43:10.061Z,15.92
2024-05-09T08:45:42.133Z,16.01
2024-05-09T08:48:12.029Z,16.15
2024-05-09T08:50:41.523Z,16.18
2024-05-09T08:53:09.206Z,16.43
2024-05-09T08:55:40.562Z,16.64
2024-05-09T08:58:15.071Z,16.23
2024-05-09T09:00:44.099Z,15.88
2024-05-09T09:03:15.761Z,16.33
2024-05-09T09:05:53.172Z,16.95
2024-05-09T09:08:20.465Z,17.43
2024-05-09T09:10:48.086Z,17.88
2024-05-09T09:13:15.506Z,18.25
2024-05-09T09:15:49.819Z,18.48
2024-05-09T09:18:17.484Z,17.88
2024-05-09T09:20:45.433Z,17.24
2024-05-09T09:23:12.421Z,17.21
2024-05-09T09:25:40.641Z,18.39
2024-05-09T09:28:08.357Z,20.01
2024-05-09T09:30:39.338Z,20.35
2024-05-09T09:33:08.379Z,22.02
2024-05-09T09:35:38.583Z,23.57
2024-05-09T09:38:07.787Z,24.92
2024-05-09T09:40:40.798Z,25.59
2024-05-09T09:43:23.241Z,26.30
2024-05-09T09:45:52.653Z,26.90
2024-05-09T09:48:21.397Z,25.91
2024-05-09T09:50:51.225Z,25.56
2024-05-09T09:53:19.259Z,23.22
2024-05-09T09:55:46.783Z,21.42
2024-05-09T09:58:16.412Z,20.41
2024-05-09T10:00:44.089Z,19.90
2024-05-09T10:03:11.186Z,20.52
2024-05-09T10:05:39.862Z,22.98
2024-05-09T10:08:10.579Z,23.95
2024-05-09T10:10:38.119Z,24.96
2024-05-09T10:13:06.345Z,26.29
2024-05-09T10:15:53.963Z,26.86
2024-05-09T10:18:27.116Z,27.33
2024-05-09T10:20:56.396Z,27.29
2024-05-09T10:23:30.301Z,28.01
2024-05-09T10:26:03.516Z,27.17
2024-05-09T10:28:32.987Z,24.66
2024-05-09T10:31:13.768Z,25.05
2024-05-09T10:33:50.214Z,26.53
2024-05-09T10:36:26.146Z,24.72
2024-05-09T10:38:54.537Z,24.69
2024-05-09T10:41:23.215Z,25.21
2024-05-09T10:43:51.123Z,24.24
2024-05-09T10:46:21.626Z,23.62
2024-05-09T10:48:49.622Z,24.83
2024-05-09T10:51:18.678Z,25.78
2024-05-09T10:53:47.828Z,26.37
2024-05-09T10:56:14.950Z,27.12
2024-05-09T10:58:41.907Z,27.30
2024-05-09T11:01:10.018Z,27.58
2024-05-09T11:03:38.407Z,28.08
2024-05-09T11:06:06.652Z,28.44
2024-05-09T11:08:34.912Z,28.19
2024-05-09T11:11:07.147Z,28.54
2024-05-09T11:13:36.448Z,29.39
2024-05-09T11:16:04.732Z,28.80
2024-05-09T11:18:36.391Z,28.81
2024-05-09T11:21:12.293Z,28.85
2024-05-09T11:23:39.512Z,27.56
2024-05-09T11:26:07.205Z,27.90
2024-05-09T11:28:36.060Z,28.16
2024-05-09T11:31:10.431Z,28.25
2024-05-09T11:33:44.019Z,27.95
2024-05-09T11:36:11.984Z,27.55
2024-05-09T11:38:38.956Z,27.59
2024-05-09T11:41:06.201Z,26.87
2024-05-09T11:43:33.359Z,27.41
2024-05-09T11:46:02.886Z,28.41
2024-05-09T11:48:30.461Z,28.41
2024-05-09T11:50:57.607Z,28.79
2024-05-09T11:53:24.500Z,29.56
2024-05-09T11:55:51.285Z,28.80
2024-05-09T11:58:19.173Z,28.61
2024-05-09T12:00:47.102Z,29.26
2024-05-09T12:03:14.651Z,29.31
2024-05-09T12:05:41.768Z,28.43
2024-05-09T12:08:08.939Z,28.28
2024-05-09T12:10:36.899Z,28.39
2024-05-09T12:13:05.965Z,28.49
2024-05-09T12:15:37.075Z,29.45
2024-05-09T12:18:05.907Z,29.82
2024-05-09T12:20:37.563Z,29.78
2024-05-09T12:23:09.465Z,30.35
2024-05-09T12:25:38.333Z,30.56
2024-05-09T12:28:05.929Z,30.33
2024-05-09T12:30:37.597Z,30.09
2024-05-09T12:33:12.157Z,29.70
2024-05-09T12:35:40.538Z,29.46
2024-05-09T12:38:07.551Z,29.17
2024-05-09T12:40:37.569Z,29.43
2024-05-09T12:43:10.287Z,29.93
2024-05-09T12:45:38.727Z,28.50
2024-05-09T12:48:08.513Z,29.09
2024-05-09T12:50:35.822Z,29.35
2024-05-09T12:53:04.118Z,29.17
2024-05-09T12:55:40.430Z,29.38
2024-05-09T12:58:18.307Z,29.94
2024-05-09T13:00:46.242Z,30.48
2024-05-09T13:03:13.830Z,31.16
2024-05-09T13:05:46.680Z,30.34
2024-05-09T13:08:13.904Z,30.06
2024-05-09T13:10:41.156Z,30.40
2024-05-09T13:13:10.476Z,30.41
2024-05-09T13:15:37.638Z,30.83
2024-05-09T13:18:06.055Z,30.83
2024-05-09T13:20:35.425Z,31.08
2024-05-09T13:23:04.846Z,31.37
2024-05-09T13:25:34.386Z,30.52
2024-05-09T13:28:01.508Z,30.21
2024-05-09T13:30:37.349Z,29.92
2024-05-09T13:33:07.671Z,29.82
2024-05-09T13:35:35.826Z,30.55
2024-05-09T13:38:04.727Z,30.83
2024-05-09T13:40:34.897Z,31.01
2024-05-09T13:43:06.642Z,29.28
2024-05-09T13:45:34.377Z,28.82
2024-05-09T13:48:06.765Z,28.30
2024-05-09T13:50:36.283Z,28.12
2024-05-09T13:53:06.355Z,28.72
2024-05-09T13:55:35.185Z,29.27
2024-05-09T13:58:02.564Z,29.00
2024-05-09T14:00:42.035Z,29.59
2024-05-09T14:03:14.547Z,30.31
2024-05-09T14:05:41.854Z,30.05
2024-05-09T14:08:09.124Z,29.34
2024-05-09T14:10:36.285Z,29.64
2024-05-09T14:13:06.303Z,28.96
2024-05-09T14:15:33.067Z,28.31
2024-05-09T14:17:59.926Z,28.45
2024-05-09T14:20:31.329Z,27.79
2024-05-09T14:23:00.998Z,27.70
2024-05-09T14:25:29.527Z,26.85
2024-05-09T14:27:58.370Z,25.84
2024-05-09T14:30:34.260Z,25.03
2024-05-09T14:33:06.093Z,23.98
2024-05-09T14:35:33.974Z,23.26
2024-05-09T14:38:01.638Z,23.02
2024-05-09T14:40:38.923Z,22.71
2024-05-09T14:43:11.212Z,22.46
2024-05-09T14:45:38.647Z,22.32
2024-05-09T14:48:07.400Z,21.90
2024-05-09T14:50:38.522Z,21.43
2024-05-09T14:53:44.052Z,21.43
2024-05-09T14:56:10.973Z,21.36
2024-05-09T14:58:37.999Z,21.16
2024-05-09T15:01:05.724Z,20.93
2024-05-09T15:03:32.636Z,20.85
2024-05-09T15:05:59.674Z,20.93
2024-05-09T15:08:26.714Z,20.79
2024-05-09T15:10:53.793Z,20.47
2024-05-09T15:13:21.391Z,20.14
2024-05-09T15:15:48.769Z,19.97
2024-05-09T15:18:16.791Z,19.87
2024-05-09T15:20:44.903Z,19.95
2024-05-09T15:23:12.140Z,19.94
2024-05-09T15:25:38.911Z,19.87
2024-05-09T15:28:07.860Z,19.70
2024-05-09T15:30:35.473Z,19.68
2024-05-09T15:33:04.619Z,19.49
2024-05-09T15:35:32.228Z,19.45
2024-05-09T15:37:59.852Z,19.51
2024-05-09T15:40:35.657Z,19.56
2024-05-09T15:43:07.780Z,19.55
2024-05-09T15:45:35.457Z,19.54
2024-05-09T15:48:03.247Z,19.52
2024-05-09T15:50:37.192Z,19.44
2024-05-09T15:53:08.954Z,19.45
2024-05-09T15:55:36.794Z,19.49
2024-05-09T15:58:05.168Z,19.44
2024-05-09T16:00:38.305Z,19.44
2024-05-09T16:03:13.262Z,19.41
2024-05-09T16:05:44.030Z,19.36
2024-05-09T16:08:12.251Z,19.36
2024-05-09T16:10:44.227Z,19.36
2024-05-09T16:13:12.174Z,19.28
2024-05-09T16:15:39.323Z,19.22
2024-05-09T16:18:06.692Z,19.13
2024-05-09T16:20:39.225Z,19.08
2024-05-09T16:23:08.968Z,18.98
2024-05-09T16:25:36.330Z,18.90
2024-05-09T16:28:07.390Z,18.92
2024-05-09T16:30:37.308Z,18.91
2024-05-09T16:33:05.233Z,18.90
2024-05-09T16:35:32.955Z,18.96
2024-05-09T16:38:02.239Z,18.99
2024-05-09T16:40:36.592Z,18.95
2024-05-09T16:43:07.535Z,18.91
2024-05-09T16:45:34.918Z,18.80
2024-05-09T16:48:02.469Z,18.76
2024-05-09T16:50:33.905Z,18.70
2024-05-09T16:53:03.484Z,18.64
2024-05-09T16:55:31.147Z,18.56
2024-05-09T16:57:58.493Z,18.49
2024-05-09T17:00:35.602Z,18.38
2024-05-09T17:03:09.649Z,18.32
2024-05-09T17:05:37.222Z,18.31
2024-05-09T17:08:04.883Z,18.25
2024-05-09T17:10:34.244Z,18.08
2024-05-09T17:13:07.055Z,18.03
2024-05-09T17:15:36.196Z,17.95
2024-05-09T17:18:04.179Z,17.87
2024-05-09T17:20:34.669Z,17.78
2024-05-09T17:23:04.935Z,17.67
2024-05-09T17:25:32.613Z,17.56
2024-05-09T17:28:06.418Z,17.47
2024-05-09T17:30:36.937Z,17.40
2024-05-09T17:33:06.842Z,17.29
2024-05-09T17:35:35.273Z,17.34
2024-05-09T17:38:02.200Z,17.29
2024-05-09T17:40:33.759Z,17.26
2024-05-09T17:43:04.115Z,17.14
2024-05-09T17:45:31.952Z,17.03
2024-05-09T17:47:59.856Z,16.93
2024-05-09T17:50:34.707Z,16.84
2024-05-09T17:53:04.249Z,16.74
2024-05-09T17:55:31.144Z,16.64
2024-05-09T17:57:58.230Z,16.53
2024-05-09T18:00:36.319Z,16.48
2024-05-09T18:03:07.297Z,16.37
2024-05-09T18:05:36.710Z,16.31
2024-05-09T18:08:04.576Z,16.25
2024-05-09T18:10:36.695Z,16.16
2024-05-09T18:13:07.209Z,16.07
2024-05-09T18:15:34.613Z,16.02
2024-05-09T18:18:02.653Z,15.91
2024-05-09T18:20:38.146Z,15.86
2024-05-09T18:23:10.887Z,15.79
2024-05-09T18:25:37.725Z,15.70
2024-05-09T18:28:05.657Z,15.58
2024-05-09T18:30:35.519Z,15.48
2024-05-09T18:33:06.459Z,15.37
2024-05-09T18:35:34.770Z,15.29
2024-05-09T18:38:01.704Z,15.20
2024-05-09T18:40:34.234Z,15.13
2024-05-09T18:43:05.504Z,15.09
2024-05-09T18:45:33.915Z,15.01
2024-05-09T18:48:01.238Z,14.99
2024-05-09T18:50:34.663Z,14.92
2024-05-09T18:53:10.170Z,14.81
2024-05-09T18:55:37.643Z,14.78
2024-05-09T18:58:05.318Z,14.71
2024-05-09T19:00:36.343Z,14.65
2024-05-09T19:03:11.800Z,14.55
2024-05-09T19:05:43.233Z,14.45
2024-05-09T19:08:11.795Z,14.39
2024-05-09T19:10:39.566Z,14.32
2024-05-09T19:13:11.730Z,14.17
2024-05-09T19:15:41.176Z,14.01
2024-05-09T19:18:10.486Z,13.95
2024-05-09T19:20:38.855Z,13.85
2024-05-09T19:23:07.308Z,13.78
2024-05-09T19:25:35.032Z,13.72
2024-05-09T19:28:03.109Z,13.62
2024-05-09T19:30:38.150Z,13.50
2024-05-09T19:33:09.103Z,13.43
2024-05-09T19:35:36.678Z,13.35
2024-05-09T19:38:03.947Z,13.30
2024-05-09T19:40:32.996Z,13.24
2024-05-09T19:43:02.574Z,13.16
2024-05-09T19:45:30.304Z,13.09
2024-05-09T19:47:57.484Z,13.02
2024-05-09T19:50:32.463Z,12.96
2024-05-09T19:53:07.431Z,12.92
2024-05-09T19:55:34.990Z,12.77
2024-05-09T19:58:05.180Z,12.69
2024-05-09T20:00:40.066Z,12.69
2024-05-09T20:03:10.120Z,12.64
2024-05-09T20:05:37.896Z,12.59
2024-05-09T20:08:05.894Z,12.60
2024-05-09T20:10:35.195Z,12.56
2024-05-09T20:13:05.053Z,12.47
2024-05-09T20:15:35.066Z,12.41
2024-05-09T20:18:02.581Z,12.42
2024-05-09T20:20:37.091Z,12.40
2024-05-09T20:23:08.428Z,12.35
2024-05-09T20:25:35.281Z,12.27
2024-05-09T20:28:02.357Z,12.21
2024-05-09T20:30:32.810Z,12.16
2024-05-09T20:33:07.056Z,12.12
2024-05-09T20:35:35.453Z,12.06
2024-05-09T20:38:03.421Z,12.05
2024-05-09T20:40:35.215Z,11.98
2024-05-09T20:43:05.998Z,11.93
2024-05-09T20:45:33.577Z,11.87
2024-05-09T20:48:02.465Z,11.83
2024-05-09T20:50:37.157Z,11.82
2024-05-09T20:53:09.559Z,11.77
2024-05-09T20:55:36.911Z,11.73
2024-05-09T20:58:03.854Z,11.67
2024-05-09T21:00:38.894Z,11.69
2024-05-09T21:03:09.622Z,11.61
2024-05-09T21:05:36.790Z,11.55
2024-05-09T21:08:04.404Z,11.50
2024-05-09T21:10:33.430Z,11.45
2024-05-09T21:13:03.356Z,11.50
2024-05-09T21:15:31.364Z,11.42
2024-05-09T21:17:58.739Z,11.40
2024-05-09T21:20:31.149Z,11.41
2024-05-09T21:22:59.984Z,11.36
2024-05-09T21:25:27.185Z,11.28
2024-05-09T21:27:54.486Z,11.26
2024-05-09T21:30:32.209Z,11.22
2024-05-09T21:33:13.372Z,11.08
2024-05-09T21:35:42.651Z,11.09
2024-05-09T21:38:09.643Z,11.05
2024-05-09T21:40:37.907Z,11.00
2024-05-09T21:43:06.702Z,11.01
2024-05-09T21:45:34.762Z,10.98
2024-05-09T21:48:05.929Z,10.90
2024-05-09T21:50:39.605Z,10.90
2024-05-09T21:53:08.694Z,10.87
2024-05-09T21:55:35.793Z,10.85
2024-05-09T21:58:03.422Z,10.84
2024-05-09T22:00:36.335Z,10.76
2024-05-09T22:03:10.275Z,10.65
2024-05-09T22:05:39.255Z,10.66
2024-05-09T22:08:06.792Z,10.64
2024-05-09T22:10:36.005Z,10.62
2024-05-09T22:13:08.023Z,10.62
2024-05-09T22:15:37.822Z,10.59
2024-05-09T22:18:06.667Z,10.57
2024-05-09T22:20:37.637Z,10.55
2024-05-09T22:23:06.702Z,10.51
2024-05-09T22:25:33.911Z,10.48
2024-05-09T22:28:02.322Z,10.47
2024-05-09T22:32:59.580Z,10.38
2024-05-09T22:35:26.560Z,10.36
2024-05-09T22:37:53.503Z,10.36
2024-05-09T22:40:29.004Z,10.47
2024-05-09T22:43:05.493Z,10.53
2024-05-09T22:45:32.610Z,10.53
2024-05-09T22:47:59.857Z,10.61
2024-05-09T22:50:31.006Z,10.58
2024-05-09T22:53:00.026Z,10.59
2024-05-09T22:55:26.783Z,10.53
2024-05-09T22:57:53.637Z,10.50
2024-05-09T23:00:29.186Z,10.45
2024-05-09T23:03:03.004Z,10.29
2024-05-09T23:05:30.826Z,10.29
2024-05-09T23:07:57.891Z,10.28
2024-05-09T23:10:31.695Z,10.27
2024-05-09T23:13:03.226Z,10.21
2024-05-09T23:15:30.244Z,10.17
2024-05-09T23:17:57.958Z,10.08
2024-05-09T23:20:33.855Z,9.95
2024-05-09T23:23:08.838Z,9.88
2024-05-09T23:25:37.099Z,9.88
2024-05-09T23:28:04.507Z,9.85
2024-05-09T23:30:37.584Z,9.76
2024-05-09T23:33:08.417Z,9.71
2024-05-09T23:35:35.632Z,9.60
2024-05-09T23:38:02.686Z,9.54
2024-05-09T23:40:38.141Z,9.46
2024-05-09T23:43:11.510Z,9.32
2024-05-09T23:45:39.383Z,9.30
2024-05-09T23:48:06.886Z,9.31
2024-05-09T23:50:37.031Z,9.26
2024-05-09T23:53:07.518Z,9.26
2024-05-09T23:55:35.756Z,9.25
2024-05-09T23:58:02.650Z,9.16
